sensor_id;sensor_type;location;lat;lon;timestamp;temperature;humidity
38221;DHT22;24023;51.280;7.148;2023-04-15T00:00:11;7.3;69.7
38221;DHT22;24023;51.280;7.148;2023-04-15T00:05:07;7.3;69.7
38221;DHT22;24023;51.280;7.148;2023-04-15T00:10:08;7.3;69.6
38221;DHT22;24023;51.280;7.148;2023-04-15T00:15:09;7.3;69.6
38221;DHT22;24023;51.280;7.148;2023-04-15T00:20:08;7.4;68.4
38221;DHT22;24023;51.280;7.148;2023-04-15T00:25:07;7.4;68.4
38221;DHT22;24023;51.280;7.148;2023-04-15T00:30:10;7.4;68.4
38221;DHT22;24023;51.280;7.148;2023-04-15T00:35:07;7.0;70.3
38221;DHT22;24023;51.280;7.148;2023-04-15T00:40:11;7.0;70.3
38221;DHT22;24023;51.280;7.148;2023-04-15T00:45:11;7.1;71.2
38221;DHT22;24023;51.280;7.148;2023-04-15T00:50:09;7.1;71.2
38221;DHT22;24023;51.280;7.148;2023-04-15T00:55:08;7.1;71.2
38221;DHT22;24023;51.280;7.148;2023-04-15T01:00:12;7.3;70.7
38221;DHT22;24023;51.280;7.148;2023-04-15T01:05:11;7.3;70.7
38221;DHT22;24023;51.280;7.148;2023-04-15T01:10:08;7.0;72.2
38221;DHT22;24023;51.280;7.148;2023-04-15T01:15:10;7.0;72.2
38221;DHT22;24023;51.280;7.148;2023-04-15T01:20:10;6.9;72.9
38221;DHT22;24023;51.280;7.148;2023-04-15T01:25:10;6.9;72.9
38221;DHT22;24023;51.280;7.148;2023-04-15T01:30:10;6.9;72.9
38221;DHT22;24023;51.280;7.148;2023-04-15T01:35:07;6.7;72.8
38221;DHT22;24023;51.280;7.148;2023-04-15T01:40:08;6.7;72.8
38221;DHT22;24023;51.280;7.148;2023-04-15T01:45:10;6.9;73.6
38221;DHT22;24023;51.280;7.148;2023-04-15T01:50:09;6.9;73.6
38221;DHT22;24023;51.280;7.148;2023-04-15T01:55:08;7.1;73.3
38221;DHT22;24023;51.280;7.148;2023-04-15T02:00:12;7.1;73.3
38221;DHT22;24023;51.280;7.148;2023-04-15T02:05:07;7.1;73.3
38221;DHT22;24023;51.280;7.148;2023-04-15T02:10:09;7.0;73.3
38221;DHT22;24023;51.280;7.148;2023-04-15T02:15:09;7.0;73.3
38221;DHT22;24023;51.280;7.148;2023-04-15T02:20:09;7.5;72.1
38221;DHT22;24023;51.280;7.148;2023-04-15T02:25:07;7.5;72.1
38221;DHT22;24023;51.280;7.148;2023-04-15T02:30:10;7.5;72.1
38221;DHT22;24023;51.280;7.148;2023-04-15T02:35:08;7.5;72.2
38221;DHT22;24023;51.280;7.148;2023-04-15T02:40:08;7.5;72.2
38221;DHT22;24023;51.280;7.148;2023-04-15T02:45:11;7.2;73.4
38221;DHT22;24023;51.280;7.148;2023-04-15T02:50:10;7.2;73.4
38221;DHT22;24023;51.280;7.148;2023-04-15T02:55:08;6.9;75.6
38221;DHT22;24023;51.280;7.148;2023-04-15T03:00:12;6.9;75.6
38221;DHT22;24023;51.280;7.148;2023-04-15T03:05:11;6.9;75.6
38221;DHT22;24023;51.280;7.148;2023-04-15T03:10:08;6.5;76.7
38221;DHT22;24023;51.280;7.148;2023-04-15T03:15:08;6.5;76.7
38221;DHT22;24023;51.280;7.148;2023-04-15T03:20:08;6.4;77.5
38221;DHT22;24023;51.280;7.148;2023-04-15T03:25:07;6.4;77.5
38221;DHT22;24023;51.280;7.148;2023-04-15T03:30:10;6.4;76.7
38221;DHT22;24023;51.280;7.148;2023-04-15T03:35:07;6.4;76.7
38221;DHT22;24023;51.280;7.148;2023-04-15T03:40:08;6.0;78.9
38221;DHT22;24023;51.280;7.148;2023-04-15T03:45:10;6.3;77.7
38221;DHT22;24023;51.280;7.148;2023-04-15T03:50:09;6.3;77.7
38221;DHT22;24023;51.280;7.148;2023-04-15T03:55:07;6.0;78.0
38221;DHT22;24023;51.280;7.148;2023-04-15T04:00:11;6.0;78.0
38221;DHT22;24023;51.280;7.148;2023-04-15T04:05:07;6.0;78.0
38221;DHT22;24023;51.280;7.148;2023-04-15T04:10:09;6.1;77.7
38221;DHT22;24023;51.280;7.148;2023-04-15T04:15:09;6.1;77.7
38221;DHT22;24023;51.280;7.148;2023-04-15T04:20:08;6.0;78.2
38221;DHT22;24023;51.280;7.148;2023-04-15T04:25:08;6.0;78.2
38221;DHT22;24023;51.280;7.148;2023-04-15T04:30:10;5.9;78.6
38221;DHT22;24023;51.280;7.148;2023-04-15T04:35:08;5.9;78.6
38221;DHT22;24023;51.280;7.148;2023-04-15T04:40:09;5.9;78.6
38221;DHT22;24023;51.280;7.148;2023-04-15T04:45:10;5.9;78.2
38221;DHT22;24023;51.280;7.148;2023-04-15T04:50:09;5.9;78.2
38221;DHT22;24023;51.280;7.148;2023-04-15T04:55:08;6.5;77.7
38221;DHT22;24023;51.280;7.148;2023-04-15T05:00:11;6.5;77.7
38221;DHT22;24023;51.280;7.148;2023-04-15T05:05:08;6.5;77.7
38221;DHT22;24023;51.280;7.148;2023-04-15T05:10:09;6.9;76.7
38221;DHT22;24023;51.280;7.148;2023-04-15T05:15:09;6.9;76.7
38221;DHT22;24023;51.280;7.148;2023-04-15T05:20:10;6.8;77.6
38221;DHT22;24023;51.280;7.148;2023-04-15T05:25:07;6.8;77.6
38221;DHT22;24023;51.280;7.148;2023-04-15T05:30:10;6.8;77.6
38221;DHT22;24023;51.280;7.148;2023-04-15T05:35:08;7.0;76.8
38221;DHT22;24023;51.280;7.148;2023-04-15T05:40:10;7.1;78.9
38221;DHT22;24023;51.280;7.148;2023-04-15T05:45:10;7.1;78.9
38221;DHT22;24023;51.280;7.148;2023-04-15T05:50:10;7.4;76.8
38221;DHT22;24023;51.280;7.148;2023-04-15T05:55:07;7.4;76.8
38221;DHT22;24023;51.280;7.148;2023-04-15T06:00:15;7.7;77.1
38221;DHT22;24023;51.280;7.148;2023-04-15T06:05:09;7.7;77.1
38221;DHT22;24023;51.280;7.148;2023-04-15T06:10:08;7.7;77.1
38221;DHT22;24023;51.280;7.148;2023-04-15T06:15:10;8.0;77.9
38221;DHT22;24023;51.280;7.148;2023-04-15T06:20:09;8.0;77.9
38221;DHT22;24023;51.280;7.148;2023-04-15T06:25:08;9.0;76.1
38221;DHT22;24023;51.280;7.148;2023-04-15T06:30:10;9.0;76.1
38221;DHT22;24023;51.280;7.148;2023-04-15T06:35:07;9.1;76.7
38221;DHT22;24023;51.280;7.148;2023-04-15T06:40:10;9.1;76.7
38221;DHT22;24023;51.280;7.148;2023-04-15T06:45:10;9.4;76.7
38221;DHT22;24023;51.280;7.148;2023-04-15T06:50:09;9.4;76.7
38221;DHT22;24023;51.280;7.148;2023-04-15T06:55:07;9.4;76.7
38221;DHT22;24023;51.280;7.148;2023-04-15T07:00:12;9.3;77.9
38221;DHT22;24023;51.280;7.148;2023-04-15T07:05:08;9.3;77.9
38221;DHT22;24023;51.280;7.148;2023-04-15T07:10:09;9.9;77.8
38221;DHT22;24023;51.280;7.148;2023-04-15T07:15:08;9.8;76.1
38221;DHT22;24023;51.280;7.148;2023-04-15T07:20:09;9.8;76.1
38221;DHT22;24023;51.280;7.148;2023-04-15T07:25:10;9.7;76.1
38221;DHT22;24023;51.280;7.148;2023-04-15T07:30:10;9.7;76.1
38221;DHT22;24023;51.280;7.148;2023-04-15T07:35:08;9.5;76.8
38221;DHT22;24023;51.280;7.148;2023-04-15T07:40:09;9.5;74.3
38221;DHT22;24023;51.280;7.148;2023-04-15T07:45:10;9.5;74.3
38221;DHT22;24023;51.280;7.148;2023-04-15T07:50:09;10.0;76.5
38221;DHT22;24023;51.280;7.148;2023-04-15T07:55:08;10.1;73.8
38221;DHT22;24023;51.280;7.148;2023-04-15T08:00:12;10.1;73.8
38221;DHT22;24023;51.280;7.148;2023-04-15T08:05:08;10.2;73.0
38221;DHT22;24023;51.280;7.148;2023-04-15T08:10:08;10.2;73.0
38221;DHT22;24023;51.280;7.148;2023-04-15T08:15:09;10.0;73.2
38221;DHT22;24023;51.280;7.148;2023-04-15T08:20:08;10.0;73.2
38221;DHT22;24023;51.280;7.148;2023-04-15T08:25:07;10.0;73.1
38221;DHT22;24023;51.280;7.148;2023-04-15T08:30:10;10.0;73.1
38221;DHT22;24023;51.280;7.148;2023-04-15T08:35:08;10.4;70.9
38221;DHT22;24023;51.280;7.148;2023-04-15T08:40:10;10.3;73.1
38221;DHT22;24023;51.280;7.148;2023-04-15T08:45:11;10.8;70.7
38221;DHT22;24023;51.280;7.148;2023-04-15T08:50:09;10.8;70.7
38221;DHT22;24023;51.280;7.148;2023-04-15T08:55:07;10.7;72.9
38221;DHT22;24023;51.280;7.148;2023-04-15T09:00:11;10.6;70.7
38221;DHT22;24023;51.280;7.148;2023-04-15T09:05:07;10.8;72.8
38221;DHT22;24023;51.280;7.148;2023-04-15T09:10:09;11.4;70.5
38221;DHT22;24023;51.280;7.148;2023-04-15T09:15:10;11.4;70.5
38221;DHT22;24023;51.280;7.148;2023-04-15T09:20:10;11.6;70.4
38221;DHT22;24023;51.280;7.148;2023-04-15T09:25:24;11.6;70.4
38221;DHT22;24023;51.280;7.148;2023-04-15T09:30:10;11.7;69.8
38221;DHT22;24023;51.280;7.148;2023-04-15T09:35:10;11.4;69.9
38221;DHT22;24023;51.280;7.148;2023-04-15T09:40:10;11.8;67.6
38221;DHT22;24023;51.280;7.148;2023-04-15T09:45:10;11.5;70.2
38221;DHT22;24023;51.280;7.148;2023-04-15T09:50:08;11.5;70.2
38221;DHT22;24023;51.280;7.148;2023-04-15T09:55:07;11.6;70.0
38221;DHT22;24023;51.280;7.148;2023-04-15T10:00:11;11.6;70.0
38221;DHT22;24023;51.280;7.148;2023-04-15T10:05:07;11.1;71.2
38221;DHT22;24023;51.280;7.148;2023-04-15T10:10:10;11.1;71.2
38221;DHT22;24023;51.280;7.148;2023-04-15T10:15:14;10.8;73.7
38221;DHT22;24023;51.280;7.148;2023-04-15T10:20:10;10.8;73.7
38221;DHT22;24023;51.280;7.148;2023-04-15T10:25:07;10.7;73.5
38221;DHT22;24023;51.280;7.148;2023-04-15T10:30:11;10.7;73.5
38221;DHT22;24023;51.280;7.148;2023-04-15T10:35:07;10.7;73.5
38221;DHT22;24023;51.280;7.148;2023-04-15T10:40:27;10.4;74.2
38221;DHT22;24023;51.280;7.148;2023-04-15T10:45:15;10.4;74.2
38221;DHT22;24023;51.280;7.148;2023-04-15T10:50:09;10.8;75.6
38221;DHT22;24023;51.280;7.148;2023-04-15T10:55:12;10.7;73.1
38221;DHT22;24023;51.280;7.148;2023-04-15T11:00:12;10.7;73.1
38221;DHT22;24023;51.280;7.148;2023-04-15T11:05:07;11.2;73.5
38221;DHT22;24023;51.280;7.148;2023-04-15T11:10:50;11.2;73.5
38221;DHT22;24023;51.280;7.148;2023-04-15T11:15:39;10.9;74.2
38221;DHT22;24023;51.280;7.148;2023-04-15T11:20:13;10.9;74.2
38221;DHT22;24023;51.280;7.148;2023-04-15T11:25:06;10.9;74.2
38221;DHT22;24023;51.280;7.148;2023-04-15T11:30:18;10.5;75.2
38221;DHT22;24023;51.280;7.148;2023-04-15T11:35:06;10.5;75.2
38221;DHT22;24023;51.280;7.148;2023-04-15T11:40:08;10.4;76.0
38221;DHT22;24023;51.280;7.148;2023-04-15T11:45:11;10.4;76.0
38221;DHT22;24023;51.280;7.148;2023-04-15T11:50:16;10.4;76.0
38221;DHT22;24023;51.280;7.148;2023-04-15T11:55:07;10.5;75.5
38221;DHT22;24023;51.280;7.148;2023-04-15T12:00:11;10.5;75.5
38221;DHT22;24023;51.280;7.148;2023-04-15T12:05:08;10.3;76.6
38221;DHT22;24023;51.280;7.148;2023-04-15T12:10:08;10.3;76.6
38221;DHT22;24023;51.280;7.148;2023-04-15T12:15:09;10.3;76.6
38221;DHT22;24023;51.280;7.148;2023-04-15T12:20:08;10.2;76.3
38221;DHT22;24023;51.280;7.148;2023-04-15T12:25:07;10.2;76.3
38221;DHT22;24023;51.280;7.148;2023-04-15T12:30:11;10.1;76.5
38221;DHT22;24023;51.280;7.148;2023-04-15T12:35:07;10.1;76.5
38221;DHT22;24023;51.280;7.148;2023-04-15T12:40:09;10.2;76.9
38221;DHT22;24023;51.280;7.148;2023-04-15T12:45:11;10.2;76.9
38221;DHT22;24023;51.280;7.148;2023-04-15T12:50:08;10.2;76.9
38221;DHT22;24023;51.280;7.148;2023-04-15T12:55:07;10.4;77.5
38221;DHT22;24023;51.280;7.148;2023-04-15T13:00:11;10.4;77.5
38221;DHT22;24023;51.280;7.148;2023-04-15T13:05:07;10.0;78.1
38221;DHT22;24023;51.280;7.148;2023-04-15T13:10:09;10.0;78.1
38221;DHT22;24023;51.280;7.148;2023-04-15T13:15:10;10.0;78.1
38221;DHT22;24023;51.280;7.148;2023-04-15T13:20:09;9.9;79.0
38221;DHT22;24023;51.280;7.148;2023-04-15T13:25:07;9.9;79.0
38221;DHT22;24023;51.280;7.148;2023-04-15T13:30:10;10.2;79.3
38221;DHT22;24023;51.280;7.148;2023-04-15T13:35:07;10.2;79.3
38221;DHT22;24023;51.280;7.148;2023-04-15T13:40:09;10.5;81.6
38221;DHT22;24023;51.280;7.148;2023-04-15T13:45:10;10.5;81.6
38221;DHT22;24023;51.280;7.148;2023-04-15T13:50:09;10.5;81.6
38221;DHT22;24023;51.280;7.148;2023-04-15T13:55:07;10.1;82.0
38221;DHT22;24023;51.280;7.148;2023-04-15T14:00:12;10.3;84.4
38221;DHT22;24023;51.280;7.148;2023-04-15T14:05:07;10.6;84.7
38221;DHT22;24023;51.280;7.148;2023-04-15T14:10:08;10.6;82.6
38221;DHT22;24023;51.280;7.148;2023-04-15T14:15:09;10.5;84.9
38221;DHT22;24023;51.280;7.148;2023-04-15T14:20:09;10.5;84.9
38221;DHT22;24023;51.280;7.148;2023-04-15T14:25:07;10.5;84.9
38221;DHT22;24023;51.280;7.148;2023-04-15T14:30:11;10.3;84.7
38221;DHT22;24023;51.280;7.148;2023-04-15T14:35:07;10.3;84.7
38221;DHT22;24023;51.280;7.148;2023-04-15T14:40:09;10.1;86.0
38221;DHT22;24023;51.280;7.148;2023-04-15T14:45:11;10.1;86.0
38221;DHT22;24023;51.280;7.148;2023-04-15T14:50:09;10.1;86.0
38221;DHT22;24023;51.280;7.148;2023-04-15T14:55:08;10.2;84.6
38221;DHT22;24023;51.280;7.148;2023-04-15T15:00:12;10.2;84.6
38221;DHT22;24023;51.280;7.148;2023-04-15T15:05:09;10.1;85.3
38221;DHT22;24023;51.280;7.148;2023-04-15T15:10:09;10.1;85.3
38221;DHT22;24023;51.280;7.148;2023-04-15T15:15:09;10.1;85.3
38221;DHT22;24023;51.280;7.148;2023-04-15T15:20:08;10.0;85.2
38221;DHT22;24023;51.280;7.148;2023-04-15T15:25:06;10.0;87.3
38221;DHT22;24023;51.280;7.148;2023-04-15T15:30:10;10.0;87.3
38221;DHT22;24023;51.280;7.148;2023-04-15T15:35:07;10.0;87.3
38221;DHT22;24023;51.280;7.148;2023-04-15T15:40:09;10.0;86.1
38221;DHT22;24023;51.280;7.148;2023-04-15T15:45:10;10.0;86.1
38221;DHT22;24023;51.280;7.148;2023-04-15T15:50:08;9.6;86.6
38221;DHT22;24023;51.280;7.148;2023-04-15T15:55:07;9.6;86.6
38221;DHT22;24023;51.280;7.148;2023-04-15T16:00:11;9.6;86.6
38221;DHT22;24023;51.280;7.148;2023-04-15T16:05:06;9.6;88.0
38221;DHT22;24023;51.280;7.148;2023-04-15T16:10:09;9.6;88.0
38221;DHT22;24023;51.280;7.148;2023-04-15T16:15:09;9.5;88.3
38221;DHT22;24023;51.280;7.148;2023-04-15T16:20:08;9.5;88.3
38221;DHT22;24023;51.280;7.148;2023-04-15T16:25:07;9.5;88.3
38221;DHT22;24023;51.280;7.148;2023-04-15T16:30:10;9.4;89.1
38221;DHT22;24023;51.280;7.148;2023-04-15T16:35:07;9.4;89.1
38221;DHT22;24023;51.280;7.148;2023-04-15T16:40:09;9.4;88.7
38221;DHT22;24023;51.280;7.148;2023-04-15T16:45:11;9.4;88.7
38221;DHT22;24023;51.280;7.148;2023-04-15T16:50:09;9.2;89.0
38221;DHT22;24023;51.280;7.148;2023-04-15T16:55:07;9.2;89.0
38221;DHT22;24023;51.280;7.148;2023-04-15T17:00:12;9.2;89.0
38221;DHT22;24023;51.280;7.148;2023-04-15T17:05:07;9.2;90.0
38221;DHT22;24023;51.280;7.148;2023-04-15T17:10:08;9.2;90.0
38221;DHT22;24023;51.280;7.148;2023-04-15T17:15:08;9.1;89.4
38221;DHT22;24023;51.280;7.148;2023-04-15T17:20:10;9.1;89.4
38221;DHT22;24023;51.280;7.148;2023-04-15T17:25:07;9.1;89.4
38221;DHT22;24023;51.280;7.148;2023-04-15T17:30:12;9.2;89.6
38221;DHT22;24023;51.280;7.148;2023-04-15T17:35:07;9.2;89.6
38221;DHT22;24023;51.280;7.148;2023-04-15T17:40:09;9.2;89.4
38221;DHT22;24023;51.280;7.148;2023-04-15T17:45:10;9.2;89.4
38221;DHT22;24023;51.280;7.148;2023-04-15T17:50:08;9.2;89.4
38221;DHT22;24023;51.280;7.148;2023-04-15T17:55:07;9.2;90.1
38221;DHT22;24023;51.280;7.148;2023-04-15T18:00:12;9.2;90.1
38221;DHT22;24023;51.280;7.148;2023-04-15T18:05:07;8.9;90.6
38221;DHT22;24023;51.280;7.148;2023-04-15T18:10:08;8.9;90.6
38221;DHT22;24023;51.280;7.148;2023-04-15T18:15:10;9.1;89.6
38221;DHT22;24023;51.280;7.148;2023-04-15T18:20:08;9.1;89.6
38221;DHT22;24023;51.280;7.148;2023-04-15T18:25:07;9.1;89.6
38221;DHT22;24023;51.280;7.148;2023-04-15T18:30:11;9.0;90.0
38221;DHT22;24023;51.280;7.148;2023-04-15T18:35:07;9.0;90.0
38221;DHT22;24023;51.280;7.148;2023-04-15T18:40:09;9.1;88.9
38221;DHT22;24023;51.280;7.148;2023-04-15T18:45:11;9.1;88.9
38221;DHT22;24023;51.280;7.148;2023-04-15T18:50:09;9.0;89.5
38221;DHT22;24023;51.280;7.148;2023-04-15T18:55:07;9.0;89.5
38221;DHT22;24023;51.280;7.148;2023-04-15T19:00:13;9.0;89.5
38221;DHT22;24023;51.280;7.148;2023-04-15T19:05:07;9.0;89.8
38221;DHT22;24023;51.280;7.148;2023-04-15T19:10:09;9.0;89.8
38221;DHT22;24023;51.280;7.148;2023-04-15T19:15:08;9.0;90.0
38221;DHT22;24023;51.280;7.148;2023-04-15T19:20:09;9.0;90.0
38221;DHT22;24023;51.280;7.148;2023-04-15T19:25:08;9.3;88.6
38221;DHT22;24023;51.280;7.148;2023-04-15T19:30:09;9.3;88.6
38221;DHT22;24023;51.280;7.148;2023-04-15T19:35:07;8.8;90.2
38221;DHT22;24023;51.280;7.148;2023-04-15T19:40:09;8.8;90.2
38221;DHT22;24023;51.280;7.148;2023-04-15T19:45:10;8.8;90.2
38221;DHT22;24023;51.280;7.148;2023-04-15T19:50:10;8.7;90.4
38221;DHT22;24023;51.280;7.148;2023-04-15T19:55:07;8.6;90.9
38221;DHT22;24023;51.280;7.148;2023-04-15T20:00:12;8.6;90.9
38221;DHT22;24023;51.280;7.148;2023-04-15T20:05:09;8.7;90.4
38221;DHT22;24023;51.280;7.148;2023-04-15T20:10:11;8.7;90.4
38221;DHT22;24023;51.280;7.148;2023-04-15T20:15:09;8.6;90.9
38221;DHT22;24023;51.280;7.148;2023-04-15T20:20:09;8.6;90.9
38221;DHT22;24023;51.280;7.148;2023-04-15T20:25:07;8.7;90.3
38221;DHT22;24023;51.280;7.148;2023-04-15T20:30:10;8.7;90.3
38221;DHT22;24023;51.280;7.148;2023-04-15T20:35:07;8.7;90.3
38221;DHT22;24023;51.280;7.148;2023-04-15T20:40:09;8.7;90.3
38221;DHT22;24023;51.280;7.148;2023-04-15T20:45:11;8.8;90.2
38221;DHT22;24023;51.280;7.148;2023-04-15T20:50:09;8.8;90.2
38221;DHT22;24023;51.280;7.148;2023-04-15T20:55:07;8.6;90.9
38221;DHT22;24023;51.280;7.148;2023-04-15T21:00:11;8.6;90.9
38221;DHT22;24023;51.280;7.148;2023-04-15T21:05:07;8.6;90.9
38221;DHT22;24023;51.280;7.148;2023-04-15T21:10:09;8.5;90.8
38221;DHT22;24023;51.280;7.148;2023-04-15T21:15:09;8.5;90.9
38221;DHT22;24023;51.280;7.148;2023-04-15T21:20:09;8.5;90.9
38221;DHT22;24023;51.280;7.148;2023-04-15T21:25:08;8.8;90.5
38221;DHT22;24023;51.280;7.148;2023-04-15T21:30:10;8.8;90.5
38221;DHT22;24023;51.280;7.148;2023-04-15T21:35:07;8.5;91.0
38221;DHT22;24023;51.280;7.148;2023-04-15T21:40:08;8.5;91.0
38221;DHT22;24023;51.280;7.148;2023-04-15T21:45:10;8.8;90.8
38221;DHT22;24023;51.280;7.148;2023-04-15T21:50:09;8.8;90.8
38221;DHT22;24023;51.280;7.148;2023-04-15T21:55:07;8.5;91.1
38221;DHT22;24023;51.280;7.148;2023-04-15T22:00:18;8.5;91.1
38221;DHT22;24023;51.280;7.148;2023-04-15T22:05:08;8.7;90.9
38221;DHT22;24023;51.280;7.148;2023-04-15T22:10:08;8.7;90.9
38221;DHT22;24023;51.280;7.148;2023-04-15T22:15:08;8.7;90.9
38221;DHT22;24023;51.280;7.148;2023-04-15T22:20:08;8.7;90.9
38221;DHT22;24023;51.280;7.148;2023-04-15T22:25:07;8.5;91.1
38221;DHT22;24023;51.280;7.148;2023-04-15T22:30:09;8.5;91.1
38221;DHT22;24023;51.280;7.148;2023-04-15T22:35:07;8.7;90.7
38221;DHT22;24023;51.280;7.148;2023-04-15T22:40:08;8.7;90.7
38221;DHT22;24023;51.280;7.148;2023-04-15T22:45:11;8.8;90.6
38221;DHT22;24023;51.280;7.148;2023-04-15T22:50:08;8.8;90.6
38221;DHT22;24023;51.280;7.148;2023-04-15T22:55:07;8.8;90.7
38221;DHT22;24023;51.280;7.148;2023-04-15T23:00:12;8.8;90.7
38221;DHT22;24023;51.280;7.148;2023-04-15T23:05:07;8.8;90.6
38221;DHT22;24023;51.280;7.148;2023-04-15T23:10:08;8.8;90.6
38221;DHT22;24023;51.280;7.148;2023-04-15T23:15:09;8.7;91.0
38221;DHT22;24023;51.280;7.148;2023-04-15T23:20:09;8.7;91.0
38221;DHT22;24023;51.280;7.148;2023-04-15T23:25:07;8.7;90.7
38221;DHT22;24023;51.280;7.148;2023-04-15T23:30:10;8.7;90.7
38221;DHT22;24023;51.280;7.148;2023-04-15T23:35:08;8.7;90.8
38221;DHT22;24023;51.280;7.148;2023-04-15T23:40:09;8.7;90.8
38221;DHT22;24023;51.280;7.148;2023-04-15T23:45:11;8.6;91.1
38221;DHT22;24023;51.280;7.148;2023-04-15T23:50:08;8.6;91.1
38221;DHT22;24023;51.280;7.148;2023-04-15T23:55:07;8.6;91.1
